sensor_id;sensor_type;location;lat;lon;timestamp;temperature;humidity
9383;DHT22;4731;49.708;10.816;2023-08-01T00:00:40;17.20;99.90
9383;DHT22;4731;49.708;10.816;2023-08-01T00:03:07;16.30;99.90
9383;DHT22;4731;49.708;10.816;2023-08-01T00:05:34;16.40;99.90
9383;DHT22;4731;49.708;10.816;2023-08-01T00:08:01;16.40;99.90
9383;DHT22;4731;49.708;10.816;2023-08-01T00:10:28;16.30;99.90
9383;DHT22;4731;49.708;10.816;2023-08-01T00:12:55;16.30;99.90
9383;DHT22;4731;49.708;10.816;2023-08-01T00:15:23;16.40;99.90
9383;DHT22;4731;49.708;10.816;2023-08-01T00:17:50;16.50;99.90
9383;DHT22;4731;49.708;10.816;2023-08-01T00:20:17;16.60;99.90
9383;DHT22;4731;49.708;10.816;2023-08-01T00:22:43;16.60;99.90
9383;DHT22;4731;49.708;10.816;2023-08-01T00:25:10;16.40;99.90
9383;DHT22;4731;49.708;10.816;2023-08-01T00:27:37;16.30;99.90
9383;DHT22;4731;49.708;10.816;2023-08-01T00:30:05;16.50;99.90
9383;DHT22;4731;49.708;10.816;2023-08-01T00:32:34;16.40;99.90
9383;DHT22;4731;49.708;10.816;2023-08-01T00:35:00;16.50;99.90
9383;DHT22;4731;49.708;10.816;2023-08-01T00:37:27;16.40;99.90
9383;DHT22;4731;49.708;10.816;2023-08-01T00:39:54;16.30;99.90
9383;DHT22;4731;49.708;10.816;2023-08-01T00:42:21;16.30;99.90
9383;DHT22;4731;49.708;10.816;2023-08-01T00:44:47;16.40;99.90
9383;DHT22;4731;49.708;10.816;2023-08-01T00:47:14;18.30;99.90
9383;DHT22;4731;49.708;10.816;2023-08-01T00:49:43;16.30;99.90
9383;DHT22;4731;49.708;10.816;2023-08-01T00:52:10;16.30;99.90
9383;DHT22;4731;49.708;10.816;2023-08-01T00:54:37;16.30;99.90
9383;DHT22;4731;49.708;10.816;2023-08-01T00:57:04;16.70;99.90
9383;DHT22;4731;49.708;10.816;2023-08-01T00:59:31;16.50;99.90
9383;DHT22;4731;49.708;10.816;2023-08-01T01:01:59;18.70;99.90
9383;DHT22;4731;49.708;10.816;2023-08-01T01:04:26;16.40;99.90
9383;DHT22;4731;49.708;10.816;2023-08-01T01:06:58;16.40;99.90
9383;DHT22;4731;49.708;10.816;2023-08-01T01:09:29;16.40;99.90
9383;DHT22;4731;49.708;10.816;2023-08-01T01:11:57;16.30;99.90
9383;DHT22;4731;49.708;10.816;2023-08-01T01:14:24;16.30;99.90
9383;DHT22;4731;49.708;10.816;2023-08-01T01:16:51;16.30;99.90
9383;DHT22;4731;49.708;10.816;2023-08-01T01:19:18;16.40;99.90
9383;DHT22;4731;49.708;10.816;2023-08-01T01:21:47;16.40;99.90
9383;DHT22;4731;49.708;10.816;2023-08-01T01:24:16;16.80;99.90
9383;DHT22;4731;49.708;10.816;2023-08-01T01:26:45;16.30;99.90
9383;DHT22;4731;49.708;10.816;2023-08-01T01:29:13;16.40;99.90
9383;DHT22;4731;49.708;10.816;2023-08-01T01:31:41;16.40;99.90
9383;DHT22;4731;49.708;10.816;2023-08-01T01:34:08;16.40;99.90
9383;DHT22;4731;49.708;10.816;2023-08-01T01:36:35;16.40;99.90
9383;DHT22;4731;49.708;10.816;2023-08-01T01:39:03;16.50;99.90
9383;DHT22;4731;49.708;10.816;2023-08-01T01:41:30;16.50;99.90
9383;DHT22;4731;49.708;10.816;2023-08-01T01:43:57;16.50;99.90
9383;DHT22;4731;49.708;10.816;2023-08-01T01:46:24;16.50;99.90
9383;DHT22;4731;49.708;10.816;2023-08-01T01:48:51;19.00;99.90
9383;DHT22;4731;49.708;10.816;2023-08-01T01:51:17;16.60;99.90
9383;DHT22;4731;49.708;10.816;2023-08-01T01:53:44;16.60;99.90
9383;DHT22;4731;49.708;10.816;2023-08-01T01:56:12;16.60;99.90
9383;DHT22;4731;49.708;10.816;2023-08-01T01:58:39;16.60;99.90
9383;DHT22;4731;49.708;10.816;2023-08-01T02:01:06;17.70;99.90
9383;DHT22;4731;49.708;10.816;2023-08-01T02:03:32;17.30;99.90
9383;DHT22;4731;49.708;10.816;2023-08-01T02:05:59;16.60;99.90
9383;DHT22;4731;49.708;10.816;2023-08-01T02:08:26;16.60;99.90
9383;DHT22;4731;49.708;10.816;2023-08-01T02:10:53;19.20;99.90
9383;DHT22;4731;49.708;10.816;2023-08-01T02:13:21;16.70;99.90
9383;DHT22;4731;49.708;10.816;2023-08-01T02:15:48;16.70;99.90
9383;DHT22;4731;49.708;10.816;2023-08-01T02:18:15;16.70;99.90
9383;DHT22;4731;49.708;10.816;2023-08-01T02:20:42;16.70;99.90
9383;DHT22;4731;49.708;10.816;2023-08-01T02:23:08;19.30;99.90
9383;DHT22;4731;49.708;10.816;2023-08-01T02:25:38;16.60;99.90
9383;DHT22;4731;49.708;10.816;2023-08-01T02:28:05;16.70;99.90
9383;DHT22;4731;49.708;10.816;2023-08-01T02:30:34;17.90;99.90
9383;DHT22;4731;49.708;10.816;2023-08-01T02:33:01;16.70;99.90
9383;DHT22;4731;49.708;10.816;2023-08-01T02:35:27;17.00;99.90
9383;DHT22;4731;49.708;10.816;2023-08-01T02:37:54;16.70;99.90
9383;DHT22;4731;49.708;10.816;2023-08-01T02:40:21;16.70;99.90
9383;DHT22;4731;49.708;10.816;2023-08-01T02:42:48;18.00;99.90
9383;DHT22;4731;49.708;10.816;2023-08-01T02:45:15;16.70;99.90
9383;DHT22;4731;49.708;10.816;2023-08-01T02:47:43;16.70;99.90
9383;DHT22;4731;49.708;10.816;2023-08-01T02:50:10;19.40;99.90
9383;DHT22;4731;49.708;10.816;2023-08-01T02:52:36;16.70;99.90
9383;DHT22;4731;49.708;10.816;2023-08-01T02:55:04;16.70;99.90
9383;DHT22;4731;49.708;10.816;2023-08-01T02:57:31;16.60;99.90
9383;DHT22;4731;49.708;10.816;2023-08-01T02:59:57;19.20;99.90
9383;DHT22;4731;49.708;10.816;2023-08-01T03:02:24;16.60;99.90
9383;DHT22;4731;49.708;10.816;2023-08-01T03:04:54;16.60;99.90
9383;DHT22;4731;49.708;10.816;2023-08-01T03:07:21;16.60;99.90
9383;DHT22;4731;49.708;10.816;2023-08-01T03:09:48;16.70;99.90
9383;DHT22;4731;49.708;10.816;2023-08-01T03:12:15;16.60;99.90
9383;DHT22;4731;49.708;10.816;2023-08-01T03:14:42;16.80;99.90
9383;DHT22;4731;49.708;10.816;2023-08-01T03:17:10;16.70;99.90
9383;DHT22;4731;49.708;10.816;2023-08-01T03:19:36;16.70;99.90
9383;DHT22;4731;49.708;10.816;2023-08-01T03:22:06;18.20;99.90
9383;DHT22;4731;49.708;10.816;2023-08-01T03:24:33;16.70;99.90
9383;DHT22;4731;49.708;10.816;2023-08-01T03:26:59;16.70;99.90
9383;DHT22;4731;49.708;10.816;2023-08-01T03:29:26;18.40;99.90
9383;DHT22;4731;49.708;10.816;2023-08-01T03:31:53;19.30;99.90
9383;DHT22;4731;49.708;10.816;2023-08-01T03:34:20;16.70;99.90
9383;DHT22;4731;49.708;10.816;2023-08-01T03:36:46;16.70;99.90
9383;DHT22;4731;49.708;10.816;2023-08-01T03:39:14;16.70;99.90
9383;DHT22;4731;49.708;10.816;2023-08-01T03:41:41;16.70;99.90
9383;DHT22;4731;49.708;10.816;2023-08-01T03:44:08;19.30;99.90
9383;DHT22;4731;49.708;10.816;2023-08-01T03:46:35;16.80;99.90
9383;DHT22;4731;49.708;10.816;2023-08-01T03:49:01;17.80;99.90
9383;DHT22;4731;49.708;10.816;2023-08-01T03:51:28;16.70;99.90
9383;DHT22;4731;49.708;10.816;2023-08-01T03:53:55;16.70;99.90
9383;DHT22;4731;49.708;10.816;2023-08-01T03:56:23;16.70;99.90
9383;DHT22;4731;49.708;10.816;2023-08-01T03:58:49;16.70;99.90
9383;DHT22;4731;49.708;10.816;2023-08-01T04:01:16;16.60;99.90
9383;DHT22;4731;49.708;10.816;2023-08-01T04:03:43;16.70;99.90
9383;DHT22;4731;49.708;10.816;2023-08-01T04:06:09;18.80;99.90
9383;DHT22;4731;49.708;10.816;2023-08-01T04:08:40;16.60;99.90
9383;DHT22;4731;49.708;10.816;2023-08-01T04:11:07;16.70;99.90
9383;DHT22;4731;49.708;10.816;2023-08-01T04:13:35;16.70;99.90
9383;DHT22;4731;49.708;10.816;2023-08-01T04:16:02;16.70;99.90
9383;DHT22;4731;49.708;10.816;2023-08-01T04:18:29;16.70;99.90
9383;DHT22;4731;49.708;10.816;2023-08-01T04:20:55;16.70;99.90
9383;DHT22;4731;49.708;10.816;2023-08-01T04:23:22;16.70;99.90
9383;DHT22;4731;49.708;10.816;2023-08-01T04:25:50;16.70;99.90
9383;DHT22;4731;49.708;10.816;2023-08-01T04:28:17;16.70;99.90
9383;DHT22;4731;49.708;10.816;2023-08-01T04:30:49;16.70;99.90
9383;DHT22;4731;49.708;10.816;2023-08-01T04:33:16;16.70;99.90
9383;DHT22;4731;49.708;10.816;2023-08-01T04:35:43;16.80;99.90
9383;DHT22;4731;49.708;10.816;2023-08-01T04:38:10;17.10;99.90
9383;DHT22;4731;49.708;10.816;2023-08-01T04:40:37;17.70;99.90
9383;DHT22;4731;49.708;10.816;2023-08-01T04:43:03;18.20;99.90
9383;DHT22;4731;49.708;10.816;2023-08-01T04:45:30;16.80;99.90
9383;DHT22;4731;49.708;10.816;2023-08-01T04:47:58;16.80;99.90
9383;DHT22;4731;49.708;10.816;2023-08-01T04:50:25;16.80;99.90
9383;DHT22;4731;49.708;10.816;2023-08-01T04:52:52;16.90;99.90
9383;DHT22;4731;49.708;10.816;2023-08-01T04:55:19;16.90;99.90
9383;DHT22;4731;49.708;10.816;2023-08-01T04:57:45;16.90;99.90
9383;DHT22;4731;49.708;10.816;2023-08-01T05:00:13;16.90;99.90
9383;DHT22;4731;49.708;10.816;2023-08-01T05:02:40;16.90;99.90
9383;DHT22;4731;49.708;10.816;2023-08-01T05:05:08;17.00;99.90
9383;DHT22;4731;49.708;10.816;2023-08-01T05:07:35;17.00;99.90
9383;DHT22;4731;49.708;10.816;2023-08-01T05:10:02;17.00;99.90
9383;DHT22;4731;49.708;10.816;2023-08-01T05:12:29;17.00;99.90
9383;DHT22;4731;49.708;10.816;2023-08-01T05:14:55;16.90;99.90
9383;DHT22;4731;49.708;10.816;2023-08-01T05:17:22;16.90;99.90
9383;DHT22;4731;49.708;10.816;2023-08-01T05:19:49;16.90;99.90
9383;DHT22;4731;49.708;10.816;2023-08-01T05:22:17;16.90;99.90
9383;DHT22;4731;49.708;10.816;2023-08-01T05:24:44;16.80;99.90
9383;DHT22;4731;49.708;10.816;2023-08-01T05:27:11;16.90;99.90
9383;DHT22;4731;49.708;10.816;2023-08-01T05:29:37;16.90;99.90
9383;DHT22;4731;49.708;10.816;2023-08-01T05:32:05;16.90;99.90
9383;DHT22;4731;49.708;10.816;2023-08-01T05:34:31;16.90;99.90
9383;DHT22;4731;49.708;10.816;2023-08-01T05:36:58;16.90;99.90
9383;DHT22;4731;49.708;10.816;2023-08-01T05:39:26;18.90;99.90
9383;DHT22;4731;49.708;10.816;2023-08-01T05:41:53;17.00;99.90
9383;DHT22;4731;49.708;10.816;2023-08-01T05:44:20;17.00;99.90
9383;DHT22;4731;49.708;10.816;2023-08-01T05:46:46;17.00;99.90
9383;DHT22;4731;49.708;10.816;2023-08-01T05:49:13;17.00;99.90
9383;DHT22;4731;49.708;10.816;2023-08-01T05:51:40;17.00;99.90
9383;DHT22;4731;49.708;10.816;2023-08-01T05:54:07;17.00;99.90
9383;DHT22;4731;49.708;10.816;2023-08-01T05:56:35;17.40;99.90
9383;DHT22;4731;49.708;10.816;2023-08-01T05:59:02;17.00;99.90
9383;DHT22;4731;49.708;10.816;2023-08-01T06:01:29;17.00;99.90
9383;DHT22;4731;49.708;10.816;2023-08-01T06:03:56;17.00;99.90
9383;DHT22;4731;49.708;10.816;2023-08-01T06:06:22;17.50;99.90
9383;DHT22;4731;49.708;10.816;2023-08-01T06:08:49;18.60;99.90
9383;DHT22;4731;49.708;10.816;2023-08-01T06:11:17;17.00;99.90
9383;DHT22;4731;49.708;10.816;2023-08-01T06:13:45;17.00;99.90
9383;DHT22;4731;49.708;10.816;2023-08-01T06:16:12;17.10;99.90
9383;DHT22;4731;49.708;10.816;2023-08-01T06:18:38;17.10;99.90
9383;DHT22;4731;49.708;10.816;2023-08-01T06:21:05;17.00;99.90
9383;DHT22;4731;49.708;10.816;2023-08-01T06:23:32;17.70;99.90
9383;DHT22;4731;49.708;10.816;2023-08-01T06:25:58;18.10;99.90
9383;DHT22;4731;49.708;10.816;2023-08-01T06:28:25;19.40;99.90
9383;DHT22;4731;49.708;10.816;2023-08-01T06:30:53;17.20;99.90
9383;DHT22;4731;49.708;10.816;2023-08-01T06:33:20;17.00;99.90
9383;DHT22;4731;49.708;10.816;2023-08-01T06:35:47;17.00;99.90
9383;DHT22;4731;49.708;10.816;2023-08-01T06:38:14;17.00;99.90
9383;DHT22;4731;49.708;10.816;2023-08-01T06:40:41;17.60;99.90
9383;DHT22;4731;49.708;10.816;2023-08-01T06:43:07;17.00;99.90
9383;DHT22;4731;49.708;10.816;2023-08-01T06:45:34;17.40;99.90
9383;DHT22;4731;49.708;10.816;2023-08-01T06:48:02;17.00;99.90
9383;DHT22;4731;49.708;10.816;2023-08-01T06:50:29;17.00;99.90
9383;DHT22;4731;49.708;10.816;2023-08-01T06:52:56;17.00;99.90
9383;DHT22;4731;49.708;10.816;2023-08-01T06:55:23;18.70;99.90
9383;DHT22;4731;49.708;10.816;2023-08-01T06:57:49;18.90;99.90
9383;DHT22;4731;49.708;10.816;2023-08-01T07:00:17;17.00;99.90
9383;DHT22;4731;49.708;10.816;2023-08-01T07:02:43;17.00;99.90
9383;DHT22;4731;49.708;10.816;2023-08-01T07:05:11;17.10;99.90
9383;DHT22;4731;49.708;10.816;2023-08-01T07:07:38;17.10;99.90
9383;DHT22;4731;49.708;10.816;2023-08-01T07:10:06;17.20;99.90
9383;DHT22;4731;49.708;10.816;2023-08-01T07:12:33;17.20;99.90
9383;DHT22;4731;49.708;10.816;2023-08-01T07:15:00;17.20;99.90
9383;DHT22;4731;49.708;10.816;2023-08-01T07:17:26;17.20;99.90
9383;DHT22;4731;49.708;10.816;2023-08-01T07:19:53;17.20;99.90
9383;DHT22;4731;49.708;10.816;2023-08-01T07:22:22;18.60;99.90
9383;DHT22;4731;49.708;10.816;2023-08-01T07:24:52;17.20;99.90
9383;DHT22;4731;49.708;10.816;2023-08-01T07:27:19;17.10;99.90
9383;DHT22;4731;49.708;10.816;2023-08-01T07:29:46;17.10;99.90
9383;DHT22;4731;49.708;10.816;2023-08-01T07:32:12;17.10;99.90
9383;DHT22;4731;49.708;10.816;2023-08-01T07:34:39;17.10;99.90
9383;DHT22;4731;49.708;10.816;2023-08-01T07:37:06;17.40;99.90
9383;DHT22;4731;49.708;10.816;2023-08-01T07:39:34;17.10;99.90
9383;DHT22;4731;49.708;10.816;2023-08-01T07:42:01;17.10;99.90
9383;DHT22;4731;49.708;10.816;2023-08-01T07:44:28;15.50;99.90
9383;DHT22;4731;49.708;10.816;2023-08-01T07:46:54;17.10;99.90
9383;DHT22;4731;49.708;10.816;2023-08-01T07:49:21;17.10;99.90
9383;DHT22;4731;49.708;10.816;2023-08-01T07:51:48;17.00;99.90
9383;DHT22;4731;49.708;10.816;2023-08-01T07:54:15;17.00;99.90
9383;DHT22;4731;49.708;10.816;2023-08-01T07:56:43;16.90;99.90
9383;DHT22;4731;49.708;10.816;2023-08-01T07:59:14;16.90;99.90
9383;DHT22;4731;49.708;10.816;2023-08-01T08:01:41;16.90;99.90
9383;DHT22;4731;49.708;10.816;2023-08-01T08:04:07;16.80;99.90
9383;DHT22;4731;49.708;10.816;2023-08-01T08:06:34;16.80;99.90
9383;DHT22;4731;49.708;10.816;2023-08-01T08:09:01;16.80;99.90
9383;DHT22;4731;49.708;10.816;2023-08-01T08:11:28;17.60;99.90
9383;DHT22;4731;49.708;10.816;2023-08-01T08:13:56;16.80;99.90
9383;DHT22;4731;49.708;10.816;2023-08-01T08:16:23;19.60;99.90
9383;DHT22;4731;49.708;10.816;2023-08-01T08:18:50;19.40;99.90
9383;DHT22;4731;49.708;10.816;2023-08-01T08:21:16;17.00;99.90
9383;DHT22;4731;49.708;10.816;2023-08-01T08:23:43;17.00;99.90
9383;DHT22;4731;49.708;10.816;2023-08-01T08:26:10;17.80;99.90
9383;DHT22;4731;49.708;10.816;2023-08-01T08:28:37;17.60;99.90
9383;DHT22;4731;49.708;10.816;2023-08-01T08:31:06;17.20;99.90
9383;DHT22;4731;49.708;10.816;2023-08-01T08:33:33;17.00;99.90
9383;DHT22;4731;49.708;10.816;2023-08-01T08:36:00;17.10;99.90
9383;DHT22;4731;49.708;10.816;2023-08-01T08:38:27;17.10;99.90
9383;DHT22;4731;49.708;10.816;2023-08-01T08:41:02;17.10;99.90
9383;DHT22;4731;49.708;10.816;2023-08-01T08:43:31;18.70;99.90
9383;DHT22;4731;49.708;10.816;2023-08-01T08:46:01;17.20;99.90
9383;DHT22;4731;49.708;10.816;2023-08-01T08:48:30;17.30;99.90
9383;DHT22;4731;49.708;10.816;2023-08-01T08:50:58;17.30;99.90
9383;DHT22;4731;49.708;10.816;2023-08-01T08:53:26;17.30;99.90
9383;DHT22;4731;49.708;10.816;2023-08-01T08:55:53;17.50;99.90
9383;DHT22;4731;49.708;10.816;2023-08-01T08:58:20;17.50;99.90
9383;DHT22;4731;49.708;10.816;2023-08-01T09:00:47;17.60;99.90
9383;DHT22;4731;49.708;10.816;2023-08-01T09:03:15;18.90;99.90
9383;DHT22;4731;49.708;10.816;2023-08-01T09:05:46;17.90;99.90
9383;DHT22;4731;49.708;10.816;2023-08-01T09:08:17;18.90;99.90
9383;DHT22;4731;49.708;10.816;2023-08-01T09:10:45;18.10;99.90
9383;DHT22;4731;49.708;10.816;2023-08-01T09:13:12;18.00;99.90
9383;DHT22;4731;49.708;10.816;2023-08-01T09:15:40;17.90;99.90
9383;DHT22;4731;49.708;10.816;2023-08-01T09:18:08;17.80;99.90
9383;DHT22;4731;49.708;10.816;2023-08-01T09:20:46;17.70;99.90
9383;DHT22;4731;49.708;10.816;2023-08-01T09:23:14;17.60;99.90
9383;DHT22;4731;49.708;10.816;2023-08-01T09:25:42;17.40;99.90
9383;DHT22;4731;49.708;10.816;2023-08-01T09:28:16;17.40;99.90
9383;DHT22;4731;49.708;10.816;2023-08-01T09:30:50;17.50;99.90
9383;DHT22;4731;49.708;10.816;2023-08-01T09:33:17;17.40;99.90
9383;DHT22;4731;49.708;10.816;2023-08-01T09:35:45;17.40;99.90
9383;DHT22;4731;49.708;10.816;2023-08-01T09:38:13;17.40;99.90
9383;DHT22;4731;49.708;10.816;2023-08-01T09:40:41;17.40;99.90
9383;DHT22;4731;49.708;10.816;2023-08-01T09:43:09;17.40;99.90
9383;DHT22;4731;49.708;10.816;2023-08-01T09:45:36;17.40;99.90
9383;DHT22;4731;49.708;10.816;2023-08-01T09:48:03;17.50;99.90
9383;DHT22;4731;49.708;10.816;2023-08-01T09:50:31;17.70;99.90
9383;DHT22;4731;49.708;10.816;2023-08-01T09:53:08;17.90;99.90
9383;DHT22;4731;49.708;10.816;2023-08-01T09:55:35;20.10;99.90
9383;DHT22;4731;49.708;10.816;2023-08-01T09:58:02;18.50;99.90
9383;DHT22;4731;49.708;10.816;2023-08-01T10:00:31;18.70;99.90
9383;DHT22;4731;49.708;10.816;2023-08-01T10:02:59;18.90;99.90
9383;DHT22;4731;49.708;10.816;2023-08-01T10:05:29;19.10;99.90
9383;DHT22;4731;49.708;10.816;2023-08-01T10:07:59;20.70;99.90
9383;DHT22;4731;49.708;10.816;2023-08-01T10:10:28;19.50;99.90
9383;DHT22;4731;49.708;10.816;2023-08-01T10:12:56;19.50;99.90
9383;DHT22;4731;49.708;10.816;2023-08-01T10:15:24;19.30;99.90
9383;DHT22;4731;49.708;10.816;2023-08-01T10:17:51;19.10;99.90
9383;DHT22;4731;49.708;10.816;2023-08-01T10:20:18;19.00;99.90
9383;DHT22;4731;49.708;10.816;2023-08-01T10:22:48;19.10;99.90
9383;DHT22;4731;49.708;10.816;2023-08-01T10:25:16;18.70;99.90
9383;DHT22;4731;49.708;10.816;2023-08-01T10:27:45;18.60;99.90
9383;DHT22;4731;49.708;10.816;2023-08-01T10:30:12;18.50;99.90
9383;DHT22;4731;49.708;10.816;2023-08-01T10:32:40;18.60;99.90
9383;DHT22;4731;49.708;10.816;2023-08-01T10:35:07;18.70;99.90
9383;DHT22;4731;49.708;10.816;2023-08-01T10:37:39;18.80;99.90
9383;DHT22;4731;49.708;10.816;2023-08-01T10:40:08;20.30;99.90
9383;DHT22;4731;49.708;10.816;2023-08-01T10:42:39;18.90;99.90
9383;DHT22;4731;49.708;10.816;2023-08-01T10:45:18;19.10;99.90
9383;DHT22;4731;49.708;10.816;2023-08-01T10:47:45;19.20;99.90
9383;DHT22;4731;49.708;10.816;2023-08-01T10:50:14;19.30;99.90
9383;DHT22;4731;49.708;10.816;2023-08-01T10:52:41;19.20;99.90
9383;DHT22;4731;49.708;10.816;2023-08-01T10:55:09;21.60;99.90
9383;DHT22;4731;49.708;10.816;2023-08-01T10:57:38;18.90;99.90
9383;DHT22;4731;49.708;10.816;2023-08-01T11:00:07;18.40;99.90
9383;DHT22;4731;49.708;10.816;2023-08-01T11:02:36;17.60;99.90
9383;DHT22;4731;49.708;10.816;2023-08-01T11:05:04;18.40;99.90
9383;DHT22;4731;49.708;10.816;2023-08-01T11:07:32;16.80;99.90
9383;DHT22;4731;49.708;10.816;2023-08-01T11:10:04;16.50;99.90
9383;DHT22;4731;49.708;10.816;2023-08-01T11:12:33;16.30;99.90
9383;DHT22;4731;49.708;10.816;2023-08-01T11:15:00;18.50;99.90
9383;DHT22;4731;49.708;10.816;2023-08-01T11:17:29;15.80;99.90
9383;DHT22;4731;49.708;10.816;2023-08-01T11:20:01;15.60;99.90
9383;DHT22;4731;49.708;10.816;2023-08-01T11:22:29;15.60;99.90
9383;DHT22;4731;49.708;10.816;2023-08-01T11:24:56;15.60;99.90
9383;DHT22;4731;49.708;10.816;2023-08-01T11:27:24;15.80;99.90
9383;DHT22;4731;49.708;10.816;2023-08-01T11:29:51;16.20;99.90
9383;DHT22;4731;49.708;10.816;2023-08-01T11:32:18;16.60;99.90
9383;DHT22;4731;49.708;10.816;2023-08-01T11:34:47;17.20;99.90
9383;DHT22;4731;49.708;10.816;2023-08-01T11:37:15;18.50;99.90
9383;DHT22;4731;49.708;10.816;2023-08-01T11:39:42;17.90;99.90
9383;DHT22;4731;49.708;10.816;2023-08-01T11:42:15;18.20;99.90
9383;DHT22;4731;49.708;10.816;2023-08-01T11:44:42;18.70;99.90
9383;DHT22;4731;49.708;10.816;2023-08-01T11:47:11;19.10;99.90
9383;DHT22;4731;49.708;10.816;2023-08-01T11:49:38;19.40;99.90
9383;DHT22;4731;49.708;10.816;2023-08-01T11:52:07;19.60;99.90
9383;DHT22;4731;49.708;10.816;2023-08-01T11:54:44;19.40;99.90
9383;DHT22;4731;49.708;10.816;2023-08-01T11:57:11;19.30;99.90
9383;DHT22;4731;49.708;10.816;2023-08-01T11:59:46;19.60;99.90
9383;DHT22;4731;49.708;10.816;2023-08-01T12:02:21;20.00;99.90
9383;DHT22;4731;49.708;10.816;2023-08-01T12:04:48;20.80;99.90
9383;DHT22;4731;49.708;10.816;2023-08-01T12:07:16;21.20;99.90
9383;DHT22;4731;49.708;10.816;2023-08-01T12:09:43;22.00;99.90
9383;DHT22;4731;49.708;10.816;2023-08-01T12:12:10;22.40;99.90
9383;DHT22;4731;49.708;10.816;2023-08-01T12:14:40;22.50;99.90
9383;DHT22;4731;49.708;10.816;2023-08-01T12:17:07;22.40;99.90
9383;DHT22;4731;49.708;10.816;2023-08-01T12:19:34;22.40;99.90
9383;DHT22;4731;49.708;10.816;2023-08-01T12:22:01;22.20;99.90
9383;DHT22;4731;49.708;10.816;2023-08-01T12:24:29;22.00;99.90
9383;DHT22;4731;49.708;10.816;2023-08-01T12:26:56;22.00;99.90
9383;DHT22;4731;49.708;10.816;2023-08-01T12:29:23;22.30;99.90
9383;DHT22;4731;49.708;10.816;2023-08-01T12:31:49;22.60;99.90
9383;DHT22;4731;49.708;10.816;2023-08-01T12:34:16;22.90;99.90
9383;DHT22;4731;49.708;10.816;2023-08-01T12:36:43;23.30;99.90
9383;DHT22;4731;49.708;10.816;2023-08-01T12:39:10;23.80;99.90
9383;DHT22;4731;49.708;10.816;2023-08-01T12:41:39;23.50;99.90
9383;DHT22;4731;49.708;10.816;2023-08-01T12:44:05;23.30;99.90
9383;DHT22;4731;49.708;10.816;2023-08-01T12:46:32;23.30;99.90
9383;DHT22;4731;49.708;10.816;2023-08-01T12:49:00;23.10;99.90
9383;DHT22;4731;49.708;10.816;2023-08-01T12:51:28;22.60;99.90
9383;DHT22;4731;49.708;10.816;2023-08-01T12:53:54;22.30;99.90
9383;DHT22;4731;49.708;10.816;2023-08-01T12:56:21;22.00;99.90
9383;DHT22;4731;49.708;10.816;2023-08-01T12:58:49;21.90;99.90
9383;DHT22;4731;49.708;10.816;2023-08-01T13:01:16;21.80;99.90
9383;DHT22;4731;49.708;10.816;2023-08-01T13:03:43;19.30;99.90
9383;DHT22;4731;49.708;10.816;2023-08-01T13:06:11;21.50;99.90
9383;DHT22;4731;49.708;10.816;2023-08-01T13:08:39;21.60;99.90
9383;DHT22;4731;49.708;10.816;2023-08-01T13:11:10;21.40;99.90
9383;DHT22;4731;49.708;10.816;2023-08-01T13:13:38;21.90;99.90
9383;DHT22;4731;49.708;10.816;2023-08-01T13:16:06;22.20;99.90
9383;DHT22;4731;49.708;10.816;2023-08-01T13:18:33;22.70;99.90
9383;DHT22;4731;49.708;10.816;2023-08-01T13:21:00;23.20;99.90
9383;DHT22;4731;49.708;10.816;2023-08-01T13:23:27;23.50;99.90
9383;DHT22;4731;49.708;10.816;2023-08-01T13:25:54;24.30;99.90
9383;DHT22;4731;49.708;10.816;2023-08-01T13:28:21;24.80;99.90
9383;DHT22;4731;49.708;10.816;2023-08-01T13:30:48;24.80;99.90
9383;DHT22;4731;49.708;10.816;2023-08-01T13:33:16;24.30;99.90
9383;DHT22;4731;49.708;10.816;2023-08-01T13:35:43;24.00;99.90
9383;DHT22;4731;49.708;10.816;2023-08-01T13:38:10;23.60;99.90
9383;DHT22;4731;49.708;10.816;2023-08-01T13:40:38;23.30;99.90
9383;DHT22;4731;49.708;10.816;2023-08-01T13:43:05;23.10;99.90
9383;DHT22;4731;49.708;10.816;2023-08-01T13:45:32;23.00;99.90
9383;DHT22;4731;49.708;10.816;2023-08-01T13:47:59;23.00;99.90
9383;DHT22;4731;49.708;10.816;2023-08-01T13:50:29;23.00;99.90
9383;DHT22;4731;49.708;10.816;2023-08-01T13:52:56;22.60;99.90
9383;DHT22;4731;49.708;10.816;2023-08-01T13:55:23;22.70;99.90
9383;DHT22;4731;49.708;10.816;2023-08-01T13:57:50;22.90;99.90
9383;DHT22;4731;49.708;10.816;2023-08-01T14:00:16;22.90;99.90
9383;DHT22;4731;49.708;10.816;2023-08-01T14:02:44;23.10;99.90
9383;DHT22;4731;49.708;10.816;2023-08-01T14:05:11;23.10;99.90
9383;DHT22;4731;49.708;10.816;2023-08-01T14:07:39;23.00;99.90
9383;DHT22;4731;49.708;10.816;2023-08-01T14:10:09;22.60;99.90
9383;DHT22;4731;49.708;10.816;2023-08-01T14:12:36;22.60;99.90
9383;DHT22;4731;49.708;10.816;2023-08-01T14:15:03;22.70;99.90
9383;DHT22;4731;49.708;10.816;2023-08-01T14:17:31;22.80;99.90
9383;DHT22;4731;49.708;10.816;2023-08-01T14:19:57;23.20;99.90
9383;DHT22;4731;49.708;10.816;2023-08-01T14:22:24;23.40;99.90
9383;DHT22;4731;49.708;10.816;2023-08-01T14:24:52;23.40;99.90
9383;DHT22;4731;49.708;10.816;2023-08-01T14:27:19;26.10;99.90
9383;DHT22;4731;49.708;10.816;2023-08-01T14:29:46;23.90;99.90
9383;DHT22;4731;49.708;10.816;2023-08-01T14:32:12;23.90;99.90
9383;DHT22;4731;49.708;10.816;2023-08-01T14:34:39;23.80;99.90
9383;DHT22;4731;49.708;10.816;2023-08-01T14:37:06;24.10;99.90
9383;DHT22;4731;49.708;10.816;2023-08-01T14:39:33;23.30;99.90
9383;DHT22;4731;49.708;10.816;2023-08-01T14:42:01;23.10;99.90
9383;DHT22;4731;49.708;10.816;2023-08-01T14:44:31;22.30;99.90
9383;DHT22;4731;49.708;10.816;2023-08-01T14:46:58;24.50;99.90
9383;DHT22;4731;49.708;10.816;2023-08-01T14:49:24;22.00;99.90
9383;DHT22;4731;49.708;10.816;2023-08-01T14:51:53;22.00;99.90
9383;DHT22;4731;49.708;10.816;2023-08-01T14:54:20;22.10;99.90
9383;DHT22;4731;49.708;10.816;2023-08-01T14:56:47;22.00;99.90
9383;DHT22;4731;49.708;10.816;2023-08-01T14:59:15;22.20;99.90
9383;DHT22;4731;49.708;10.816;2023-08-01T15:01:42;21.90;99.90
9383;DHT22;4731;49.708;10.816;2023-08-01T15:04:09;21.90;99.90
9383;DHT22;4731;49.708;10.816;2023-08-01T15:06:36;22.20;99.90
9383;DHT22;4731;49.708;10.816;2023-08-01T15:09:03;22.50;99.90
9383;DHT22;4731;49.708;10.816;2023-08-01T15:11:30;23.40;99.90
9383;DHT22;4731;49.708;10.816;2023-08-01T15:13:57;22.60;99.90
9383;DHT22;4731;49.708;10.816;2023-08-01T15:16:25;22.50;99.90
9383;DHT22;4731;49.708;10.816;2023-08-01T15:18:52;22.30;99.90
9383;DHT22;4731;49.708;10.816;2023-08-01T15:21:19;22.10;99.90
9383;DHT22;4731;49.708;10.816;2023-08-01T15:23:46;22.10;99.90
9383;DHT22;4731;49.708;10.816;2023-08-01T15:26:13;22.00;99.90
9383;DHT22;4731;49.708;10.816;2023-08-01T15:28:39;21.70;99.90
9383;DHT22;4731;49.708;10.816;2023-08-01T15:31:08;22.60;99.90
9383;DHT22;4731;49.708;10.816;2023-08-01T15:33:38;21.60;99.90
9383;DHT22;4731;49.708;10.816;2023-08-01T15:36:06;23.90;99.90
9383;DHT22;4731;49.708;10.816;2023-08-01T15:38:34;23.90;99.90
9383;DHT22;4731;49.708;10.816;2023-08-01T15:41:01;21.60;99.90
9383;DHT22;4731;49.708;10.816;2023-08-01T15:43:34;21.30;99.90
9383;DHT22;4731;49.708;10.816;2023-08-01T15:46:01;21.10;99.90